createdAt,value
2019-03-08T00:01:21.918Z,99706.36
2019-03-08T00:03:52.556Z,99710.02
2019-03-08T00:06:23.097Z,99710.22
2019-03-08T00:08:53.513Z,99704.77
2019-03-08T00:11:23.961Z,99707.52
2019-03-08T00:13:54.408Z,99702.74
2019-03-08T00:16:25.063Z,99699.56
2019-03-08T00:18:55.500Z,99702.80
2019-03-08T00:21:26.040Z,99698.19
2019-03-08T00:23:56.601Z,99713.58
2019-03-08T00:26:27.108Z,99713.52
2019-03-08T00:28:57.616Z,99711.88
2019-03-08T00:31:28.168Z,99711.96
2019-03-08T00:33:58.644Z,99719.63
2019-03-08T00:36:29.224Z,99715.02
2019-03-08T00:38:59.719Z,99713.05
2019-03-08T00:41:30.147Z,99709.65
2019-03-08T00:44:01.373Z,99723.39
2019-03-08T00:46:31.880Z,99714.38
2019-03-08T00:49:02.702Z,99712.59
2019-03-08T00:51:33.090Z,99721.57
2019-03-08T00:54:03.686Z,99725.23
2019-03-08T00:56:35.169Z,99732.02
2019-03-08T00:59:06.004Z,99734.13
2019-03-08T01:01:36.404Z,99727.63
2019-03-08T01:04:06.726Z,99717.52
2019-03-08T01:06:37.194Z,99724.09
2019-03-08T01:09:08.274Z,99737.15
2019-03-08T01:11:39.991Z,99738.03
2019-03-08T01:14:10.341Z,99734.42
2019-03-08T01:16:40.761Z,99725.67
2019-03-08T01:19:11.096Z,99720.77
2019-03-08T01:21:41.561Z,99721.84
2019-03-08T01:24:12.203Z,99716.45
2019-03-08T01:26:42.788Z,99713.91
2019-03-08T01:29:13.277Z,99699.47
2019-03-08T01:31:43.852Z,99708.80
2019-03-08T01:34:14.237Z,99711.86
2019-03-08T01:36:46.596Z,99708.29
2019-03-08T01:39:17.099Z,99706.22
2019-03-08T01:41:47.493Z,99703.23
2019-03-08T01:44:18.838Z,99698.09
2019-03-08T01:46:49.232Z,99687.39
2019-03-08T01:49:19.986Z,99690.27
2019-03-08T01:51:50.320Z,99699.58
2019-03-08T01:54:20.907Z,99694.93
2019-03-08T01:56:52.463Z,99697.73
2019-03-08T01:59:22.979Z,99691.42
2019-03-08T02:01:53.609Z,99702.76
2019-03-08T02:04:25.087Z,99691.80
2019-03-08T02:06:55.582Z,99691.45
2019-03-08T02:09:25.929Z,99691.59
2019-03-08T02:11:56.329Z,99682.42
2019-03-08T02:14:26.889Z,99685.27
2019-03-08T02:16:57.408Z,99688.12
2019-03-08T02:19:27.797Z,99684.69
2019-03-08T02:21:58.556Z,99681.69
2019-03-08T02:24:29.118Z,99677.11
2019-03-08T02:27:00.124Z,99668.34
2019-03-08T02:29:30.601Z,99663.26
2019-03-08T02:32:01.181Z,99655.23
2019-03-08T02:34:32.827Z,99656.24
2019-03-08T02:37:03.292Z,99653.42
2019-03-08T02:39:33.782Z,99655.95
2019-03-08T02:42:04.238Z,99649.81
2019-03-08T02:44:35.587Z,99633.84
2019-03-08T02:47:06.179Z,99631.55
2019-03-08T02:49:38.086Z,99635.09
2019-03-08T02:52:08.632Z,99632.44
2019-03-08T02:54:39.118Z,99624.54
2019-03-08T02:57:09.882Z,99627.06
2019-03-08T02:59:40.280Z,99644.33
2019-03-08T03:02:11.029Z,99629.48
2019-03-08T03:04:41.644Z,99647.61
2019-03-08T03:07:12.054Z,99638.46
2019-03-08T03:09:42.464Z,99639.98
2019-03-08T03:12:12.831Z,99632.78
2019-03-08T03:14:43.150Z,99639.98
2019-03-08T03:17:15.030Z,99636.95
2019-03-08T03:19:45.411Z,99636.41
2019-03-08T03:22:15.985Z,99642.55
2019-03-08T03:24:46.359Z,99650.17
2019-03-08T03:27:16.658Z,99650.14
2019-03-08T03:29:47.344Z,99648.13
2019-03-08T03:32:17.843Z,99639.86
2019-03-08T03:34:48.250Z,99637.13
2019-03-08T03:37:18.772Z,99650.06
2019-03-08T03:39:49.185Z,99649.70
2019-03-08T03:42:19.636Z,99629.27
2019-03-08T03:44:50.958Z,99646.54
2019-03-08T03:47:21.449Z,99640.45
2019-03-08T03:49:51.835Z,99637.06
2019-03-08T03:52:22.334Z,99646.54
2019-03-08T03:54:52.786Z,99637.16
2019-03-08T03:57:23.197Z,99638.31
2019-03-08T03:59:53.761Z,99607.75
2019-03-08T04:02:24.193Z,99630.73
2019-03-08T04:04:54.418Z,99630.55
2019-03-08T04:07:24.948Z,99623.00
2019-03-08T04:09:55.285Z,99632.80
2019-03-08T04:12:25.676Z,99624.98
2019-03-08T04:14:56.253Z,99614.84
2019-03-08T04:17:26.644Z,99625.83
2019-03-08T04:19:57.041Z,99618.08
2019-03-08T04:22:27.550Z,99618.05
2019-03-08T04:24:58.081Z,99613.66
2019-03-08T04:27:28.576Z,99610.80
2019-03-08T04:29:59.170Z,99622.06
2019-03-08T04:32:29.564Z,99616.13
2019-03-08T04:35:00.125Z,99619.64
2019-03-08T04:37:30.708Z,99602.14
2019-03-08T04:40:02.077Z,99598.63
2019-03-08T04:42:33.710Z,99585.30
2019-03-08T04:45:05.854Z,99600.55
2019-03-08T04:47:36.273Z,99588.14
2019-03-08T04:50:09.325Z,99594.06
2019-03-08T04:52:39.765Z,99599.54
2019-03-08T04:55:16.877Z,99590.74
2019-03-08T04:57:48.086Z,99606.66
2019-03-08T05:00:19.413Z,99595.90
2019-03-08T05:02:49.745Z,99592.55
2019-03-08T05:05:20.015Z,99600.83
2019-03-08T05:07:50.614Z,99597.27
2019-03-08T05:10:21.521Z,99598.48
2019-03-08T05:12:51.851Z,99590.64
2019-03-08T05:15:22.268Z,99591.41
2019-03-08T05:17:52.728Z,99587.69
2019-03-08T05:20:23.212Z,99588.05
2019-03-08T05:22:53.827Z,99591.36
2019-03-08T05:25:24.317Z,99596.64
2019-03-08T05:27:54.710Z,99583.00
2019-03-08T05:30:25.133Z,99580.49
2019-03-08T05:32:55.596Z,99594.36
2019-03-08T05:35:25.991Z,99589.02
2019-03-08T05:37:56.281Z,99582.12
2019-03-08T05:40:26.919Z,99583.66
2019-03-08T05:42:58.318Z,99589.67
2019-03-08T05:45:28.668Z,99580.27
2019-03-08T05:47:59.439Z,99582.48
2019-03-08T05:50:30.027Z,99588.48
2019-03-08T05:53:00.579Z,99581.86
2019-03-08T05:55:31.122Z,99575.95
2019-03-08T05:58:01.481Z,99583.95
2019-03-08T06:00:35.648Z,99586.53
2019-03-08T06:03:06.579Z,99585.42
2019-03-08T06:05:36.925Z,99583.36
2019-03-08T06:08:07.457Z,99571.64
2019-03-08T06:10:38.333Z,99568.14
2019-03-08T06:13:08.662Z,99588.52
2019-03-08T06:15:39.422Z,99587.13
2019-03-08T06:18:09.811Z,99587.95
2019-03-08T06:20:40.338Z,99586.63
2019-03-08T06:23:10.773Z,99572.77
2019-03-08T06:25:41.472Z,99587.19
2019-03-08T06:28:12.152Z,99582.28
2019-03-08T06:30:42.562Z,99572.89
2019-03-08T06:33:12.958Z,99578.23
2019-03-08T06:35:43.608Z,99588.59
2019-03-08T06:38:13.933Z,99592.58
2019-03-08T06:40:44.421Z,99588.22
2019-03-08T06:43:15.173Z,99578.24
2019-03-08T06:45:47.490Z,99564.83
2019-03-08T06:48:17.969Z,99558.94
2019-03-08T06:50:49.413Z,99574.63
2019-03-08T06:53:20.085Z,99584.59
2019-03-08T06:55:50.791Z,99584.73
2019-03-08T06:58:25.589Z,99592.78
2019-03-08T07:00:57.562Z,99590.20
2019-03-08T07:03:28.181Z,99589.54
2019-03-08T07:05:58.957Z,99588.08
2019-03-08T07:08:30.960Z,99591.55
2019-03-08T07:11:01.657Z,99600.38
2019-03-08T07:13:32.290Z,99593.73
2019-03-08T07:16:02.691Z,99587.03
2019-03-08T07:18:34.230Z,99597.02
2019-03-08T07:21:09.290Z,99592.15
2019-03-08T07:24:00.991Z,99602.51
2019-03-08T07:26:33.246Z,99581.06
2019-03-08T07:29:14.482Z,99604.67
2019-03-08T07:31:58.511Z,99600.64
2019-03-08T07:34:30.561Z,99593.62
2019-03-08T07:37:19.080Z,99602.70
2019-03-08T07:39:56.757Z,99611.95
2019-03-08T07:42:28.884Z,99603.23
2019-03-08T07:45:03.895Z,99605.41
2019-03-08T07:47:42.257Z,99597.55
2019-03-08T07:50:17.654Z,99589.19
2019-03-08T07:52:58.605Z,99609.07
2019-03-08T07:55:46.771Z,99612.76
2019-03-08T07:58:18.891Z,99593.20
2019-03-08T08:00:54.134Z,99610.62
2019-03-08T08:03:35.564Z,99593.47
2019-03-08T08:06:19.488Z,99603.83
2019-03-08T08:09:06.921Z,99623.61
2019-03-08T08:11:45.994Z,99603.47
2019-03-08T08:14:20.932Z,99607.84
2019-03-08T08:17:08.114Z,99608.86
2019-03-08T08:19:46.193Z,99604.56
2019-03-08T08:22:24.376Z,99621.41
2019-03-08T08:25:05.733Z,99632.47
2019-03-08T08:27:44.082Z,99630.76
2019-03-08T08:30:17.040Z,99621.81
2019-03-08T08:32:55.082Z,99633.55
2019-03-08T08:35:43.467Z,99629.84
2019-03-08T08:38:24.793Z,99641.28
2019-03-08T08:41:13.690Z,99648.20
2019-03-08T08:43:51.878Z,99618.97
2019-03-08T08:46:30.114Z,99634.57
2019-03-08T08:49:05.047Z,99630.23
2019-03-08T08:51:37.127Z,99618.30
2019-03-08T08:54:18.310Z,99635.20
2019-03-08T08:56:53.132Z,99596.22
2019-03-08T08:59:37.622Z,99659.05
2019-03-08T09:02:12.531Z,99610.65
2019-03-08T09:04:44.627Z,99639.64
2019-03-08T09:07:35.364Z,99649.53
2019-03-08T09:10:10.831Z,99649.20
2019-03-08T09:12:43.391Z,99632.03
2019-03-08T09:15:18.168Z,99653.66
2019-03-08T09:17:59.510Z,99644.74
2019-03-08T09:20:48.383Z,99649.20
2019-03-08T09:23:38.669Z,99666.45
2019-03-08T09:26:27.232Z,99650.89
2019-03-08T09:29:02.545Z,99657.84
2019-03-08T09:31:49.817Z,99675.87
2019-03-08T09:34:28.272Z,99680.28
2019-03-08T09:37:03.432Z,99683.34
2019-03-08T09:39:41.196Z,99703.77
2019-03-08T09:42:19.274Z,99705.90
2019-03-08T09:45:07.491Z,99707.19
2019-03-08T09:47:51.418Z,99721.25
2019-03-08T09:50:40.173Z,99683.25
2019-03-08T09:53:21.062Z,99707.58
2019-03-08T09:55:53.106Z,99727.58
2019-03-08T09:58:31.072Z,99738.56
2019-03-08T10:01:03.278Z,99756.16
2019-03-08T10:03:38.215Z,99703.47
2019-03-08T10:06:10.318Z,99717.39
2019-03-08T10:08:51.640Z,99744.10
2019-03-08T10:11:30.233Z,99668.39
2019-03-08T10:14:02.467Z,99705.02
2019-03-08T10:16:46.817Z,99746.67
2019-03-08T10:19:25.992Z,99731.55
2019-03-08T10:21:59.274Z,99752.98
2019-03-08T10:24:31.510Z,99725.98
2019-03-08T10:27:04.139Z,99759.88
2019-03-08T10:29:36.732Z,99759.22
2019-03-08T10:32:23.712Z,99761.49
2019-03-08T10:34:55.901Z,99770.63
2019-03-08T10:37:28.038Z,99795.03
2019-03-08T10:40:10.123Z,99781.77
2019-03-08T10:42:42.196Z,99771.03
2019-03-08T10:45:20.182Z,99781.30
2019-03-08T10:47:55.941Z,99801.51
2019-03-08T10:50:42.446Z,99806.45
2019-03-08T10:53:23.808Z,99814.14
2019-03-08T10:55:55.830Z,99805.77
2019-03-08T10:58:37.035Z,99834.94
2019-03-08T11:01:18.233Z,99832.39
2019-03-08T11:03:53.421Z,99813.83
2019-03-08T11:06:29.038Z,99836.47
2019-03-08T11:09:19.628Z,99822.40
2019-03-08T11:12:00.783Z,99806.19
2019-03-08T11:14:32.857Z,99835.81
2019-03-08T11:17:07.692Z,99823.09
2019-03-08T11:19:45.756Z,99843.53
2019-03-08T11:22:26.781Z,99837.93
2019-03-08T11:25:07.743Z,99845.44
2019-03-08T11:27:32.983Z,99819.57
2019-03-08T11:30:11.707Z,99843.13
2019-03-08T11:32:54.672Z,99848.16
2019-03-08T11:35:26.698Z,99834.55
2019-03-08T11:38:04.646Z,99850.50
2019-03-08T11:40:36.851Z,99823.17
2019-03-08T11:43:09.271Z,99832.16
2019-03-08T11:45:41.395Z,99827.05
2019-03-08T11:48:13.617Z,99805.50
2019-03-08T11:53:28.491Z,99832.45
2019-03-08T11:56:18.278Z,99850.61
2019-03-08T11:58:50.394Z,99860.98
2019-03-08T12:01:35.893Z,99855.82
2019-03-08T12:04:10.722Z,99824.09
2019-03-08T12:06:48.897Z,99862.28
2019-03-08T12:09:37.406Z,99842.86
2019-03-08T12:12:26.968Z,99844.27
2019-03-08T12:15:08.186Z,99836.94
2019-03-08T12:17:49.665Z,99857.48
2019-03-08T12:20:22.229Z,99797.81
2019-03-08T12:22:54.455Z,99842.10
2019-03-08T12:25:32.469Z,99833.54
2019-03-08T12:28:04.632Z,99839.53
2019-03-08T12:30:43.033Z,99854.23
2019-03-08T12:33:18.071Z,99864.81
2019-03-08T12:35:50.232Z,99867.25
2019-03-08T12:38:29.768Z,99869.81
2019-03-08T12:41:08.271Z,99857.09
2019-03-08T12:43:52.285Z,99869.63
2019-03-08T12:46:40.935Z,99872.25
2019-03-08T12:49:13.023Z,99903.41
2019-03-08T12:51:45.719Z,99931.08
2019-03-08T12:54:28.078Z,99959.88
2019-03-08T12:57:19.029Z,99972.83
2019-03-08T12:59:51.636Z,99971.91
2019-03-08T13:02:40.039Z,99962.57
2019-03-08T13:05:12.169Z,99965.73
2019-03-08T13:07:44.293Z,99961.08
2019-03-08T13:10:15.673Z,99951.86
2019-03-08T13:12:46.490Z,99955.37
2019-03-08T13:15:17.679Z,99940.81
2019-03-08T13:17:48.335Z,99957.97
2019-03-08T13:20:18.970Z,99950.91
2019-03-08T13:22:49.616Z,99964.36
2019-03-08T13:25:21.448Z,99956.92
2019-03-08T13:27:52.078Z,99951.88
2019-03-08T13:30:25.980Z,99966.74
2019-03-08T13:32:56.620Z,99967.50
2019-03-08T13:35:28.850Z,99971.13
2019-03-08T13:37:59.450Z,99973.96
2019-03-08T13:40:30.157Z,99979.59
2019-03-08T13:43:00.717Z,99986.44
2019-03-08T13:45:31.442Z,100007.59
2019-03-08T13:48:02.966Z,100017.41
2019-03-08T13:50:34.142Z,100031.67
2019-03-08T13:53:08.015Z,100054.01
2019-03-08T13:55:39.549Z,100054.63
2019-03-08T13:58:10.179Z,100084.91
2019-03-08T14:00:40.690Z,100057.58
2019-03-08T14:03:11.207Z,100071.25
2019-03-08T14:05:41.954Z,100065.45
2019-03-08T14:08:12.689Z,100068.33
2019-03-08T14:10:43.280Z,100075.09
2019-03-08T14:13:13.672Z,100071.43
2019-03-08T14:15:44.281Z,100073.06
2019-03-08T14:18:14.675Z,100073.72
2019-03-08T14:20:45.439Z,100066.06
2019-03-08T14:23:16.149Z,100080.45
2019-03-08T14:25:46.569Z,100091.74
2019-03-08T14:28:16.977Z,100082.34
2019-03-08T14:30:57.548Z,100089.30
2019-03-08T14:33:21.385Z,100077.86
2019-03-08T14:35:51.739Z,100095.03
2019-03-08T14:38:22.223Z,100100.80
2019-03-08T14:40:57.435Z,100091.59
2019-03-08T14:43:30.932Z,100100.44
2019-03-08T14:46:03.109Z,100108.50
2019-03-08T14:48:33.649Z,100117.09
2019-03-08T14:51:04.063Z,100134.63
2019-03-08T14:53:34.530Z,100123.41
2019-03-08T14:56:05.092Z,100135.63
2019-03-08T14:58:40.216Z,100137.25
2019-03-08T15:01:08.731Z,100150.02
2019-03-08T15:03:43.165Z,100150.98
2019-03-08T15:06:11.493Z,100143.47
2019-03-08T15:08:43.171Z,100154.58
2019-03-08T15:11:13.602Z,100162.75
2019-03-08T15:13:45.053Z,100183.45
2019-03-08T15:16:15.692Z,100191.30
2019-03-08T15:18:47.663Z,100194.25
2019-03-08T15:21:18.568Z,100189.55
2019-03-08T15:23:50.994Z,100194.02
2019-03-08T15:26:21.137Z,100195.43
2019-03-08T15:28:51.640Z,100202.57
2019-03-08T15:31:22.249Z,100211.59
2019-03-08T15:33:56.044Z,100206.75
2019-03-08T15:36:26.701Z,100221.39
2019-03-08T15:38:59.087Z,100226.02
2019-03-08T15:41:29.719Z,100219.84
2019-03-08T15:44:00.198Z,100220.84
2019-03-08T15:46:30.714Z,100238.62
2019-03-08T15:49:02.189Z,100232.77
2019-03-08T15:51:32.719Z,100242.16
2019-03-08T15:54:03.243Z,100241.11
2019-03-08T15:56:35.086Z,100240.98
2019-03-08T15:59:06.450Z,100242.45
2019-03-08T16:01:37.019Z,100244.52
2019-03-08T16:04:08.122Z,100247.89
2019-03-08T16:06:43.656Z,100261.04
2019-03-08T16:09:12.975Z,100263.09
2019-03-08T16:11:43.512Z,100271.27
2019-03-08T16:14:14.326Z,100277.86
2019-03-08T16:16:44.974Z,100276.59
2019-03-08T16:19:17.096Z,100295.09
2019-03-08T16:21:50.665Z,100287.41
2019-03-08T16:24:21.368Z,100303.01
2019-03-08T16:26:51.951Z,100304.17
2019-03-08T16:29:24.278Z,100302.30
2019-03-08T16:32:00.001Z,100311.53
2019-03-08T16:34:30.642Z,100312.39
2019-03-08T16:37:09.399Z,100319.05
2019-03-08T16:39:46.029Z,100309.48
2019-03-08T16:42:18.415Z,100350.42
2019-03-08T16:45:07.398Z,100344.69
2019-03-08T16:47:42.553Z,100352.52
2019-03-08T16:50:15.828Z,100365.70
2019-03-08T16:52:48.131Z,100369.13
2019-03-08T16:55:44.006Z,100367.17
2019-03-08T16:58:22.749Z,100372.11
2019-03-08T17:01:21.709Z,100377.80
2019-03-08T17:04:00.040Z,100382.39
2019-03-08T17:06:38.405Z,100389.19
2019-03-08T17:09:21.432Z,100389.68
2019-03-08T17:11:53.547Z,100396.19
2019-03-08T17:14:41.875Z,100405.86
2019-03-08T17:17:30.605Z,100419.15
2019-03-08T17:20:18.026Z,100425.31
2019-03-08T17:23:05.063Z,100436.67
2019-03-08T17:25:40.214Z,100447.84
2019-03-08T17:28:21.280Z,100448.62
2019-03-08T17:31:09.789Z,100458.23
2019-03-08T17:33:41.999Z,100462.41
2019-03-08T17:36:14.822Z,100472.00
2019-03-08T17:38:47.284Z,100481.96
2019-03-08T17:41:35.945Z,100488.91
2019-03-08T17:44:11.627Z,100492.33
2019-03-08T17:46:50.435Z,100500.94
2019-03-08T17:49:25.122Z,100507.48
2019-03-08T17:52:34.328Z,100513.08
2019-03-08T17:55:30.320Z,100510.38
2019-03-08T17:58:13.601Z,100522.08
2019-03-08T18:00:54.173Z,100521.53
2019-03-08T18:03:40.331Z,100521.72
2019-03-08T18:06:21.473Z,100529.84
2019-03-08T18:08:56.714Z,100535.91
2019-03-08T18:11:45.314Z,100540.98
2019-03-08T18:17:29.084Z,100548.95
2019-03-08T18:20:14.499Z,100549.79
2019-03-08T18:22:47.609Z,100548.56
2019-03-08T18:25:34.985Z,100557.34
2019-03-08T18:28:25.698Z,100559.57
2019-03-08T18:31:05.728Z,100563.88
2019-03-08T18:33:54.584Z,100558.36
2019-03-08T18:36:29.485Z,100568.44
2019-03-08T18:39:03.463Z,100570.05
2019-03-08T18:41:52.178Z,100572.67
2019-03-08T18:44:25.139Z,100572.52
2019-03-08T18:47:02.414Z,100572.75
2019-03-08T18:49:36.670Z,100572.52
2019-03-08T18:52:12.591Z,100575.59
2019-03-08T18:54:58.814Z,100578.48
2019-03-08T18:57:40.670Z,100581.98
2019-03-08T19:00:25.717Z,100588.91
2019-03-08T19:02:58.001Z,100588.10
2019-03-08T19:05:30.426Z,100591.67
2019-03-08T19:08:03.937Z,100596.87
2019-03-08T19:10:42.478Z,100594.58
2019-03-08T19:13:14.769Z,100600.13
2019-03-08T19:15:59.914Z,100609.05
2019-03-08T19:18:48.584Z,100613.22
2019-03-08T19:21:32.432Z,100613.59
2019-03-08T19:24:05.015Z,100617.77
2019-03-08T19:26:50.988Z,100624.08
2019-03-08T19:29:39.468Z,100625.56
2019-03-08T19:32:18.363Z,100641.98
2019-03-08T19:34:50.989Z,100641.67
2019-03-08T19:37:29.519Z,100646.30
2019-03-08T19:40:01.955Z,100654.37
2019-03-08T19:42:50.591Z,100652.84
2019-03-08T19:45:29.106Z,100655.97
2019-03-08T19:48:17.730Z,100658.45
2019-03-08T19:50:58.973Z,100661.78
2019-03-08T19:53:47.815Z,100665.95
2019-03-08T19:56:33.391Z,100673.55
2019-03-08T19:59:10.885Z,100677.79
2019-03-08T20:01:49.193Z,100669.50
2019-03-08T20:04:22.266Z,100675.23
2019-03-08T20:07:12.816Z,100680.14
2019-03-08T20:09:52.898Z,100686.50
2019-03-08T20:12:38.708Z,100686.30
2019-03-08T20:15:19.983Z,100693.10
2019-03-08T20:17:57.465Z,100684.39
2019-03-08T20:20:36.155Z,100684.50
2019-03-08T20:23:25.971Z,100689.49
2019-03-08T20:25:59.020Z,100697.14
2019-03-08T20:28:48.665Z,100697.63
2019-03-08T20:31:25.479Z,100704.70
2019-03-08T20:34:05.208Z,100707.43
2019-03-08T20:36:44.951Z,100710.95
2019-03-08T20:39:22.472Z,100709.27
2019-03-08T20:42:02.222Z,100719.87
2019-03-08T20:44:43.821Z,100720.86
2019-03-08T20:47:22.618Z,100722.34
2019-03-08T20:49:55.663Z,100723.47
2019-03-08T20:52:27.234Z,100720.98
2019-03-08T20:55:00.336Z,100725.94
2019-03-08T20:57:32.429Z,100729.91
2019-03-08T21:00:05.295Z,100724.74
2019-03-08T21:02:36.609Z,100726.59
2019-03-08T21:05:09.939Z,100729.70
2019-03-08T21:07:42.818Z,100738.64
2019-03-08T21:10:15.718Z,100737.94
2019-03-08T21:12:46.922Z,100731.00
2019-03-08T21:15:25.383Z,100744.23
2019-03-08T21:17:57.129Z,100744.59
2019-03-08T21:20:51.507Z,100745.45
2019-03-08T21:23:23.029Z,100752.98
2019-03-08T21:25:54.269Z,100749.89
2019-03-08T21:28:25.479Z,100748.17
2019-03-08T21:30:56.779Z,100757.42
2019-03-08T21:33:27.663Z,100760.52
2019-03-08T21:35:58.428Z,100755.99
2019-03-08T21:38:30.859Z,100754.28
2019-03-08T21:41:01.759Z,100756.02
2019-03-08T21:43:32.424Z,100763.97
2019-03-08T21:46:03.423Z,100768.33
2019-03-08T21:48:35.724Z,100765.28
2019-03-08T21:51:09.393Z,100763.50
2019-03-08T21:53:42.324Z,100768.80
2019-03-08T21:56:13.144Z,100771.75
2019-03-08T21:58:45.273Z,100773.43
2019-03-08T22:01:15.729Z,100777.77
2019-03-08T22:03:49.948Z,100776.45
2019-03-08T22:06:20.874Z,100775.61
2019-03-08T22:09:00.584Z,100769.54
2019-03-08T22:11:35.384Z,100778.83
2019-03-08T22:14:08.498Z,100791.09
2019-03-08T22:16:38.861Z,100783.19
2019-03-08T22:19:09.620Z,100786.20
2019-03-08T22:21:40.627Z,100781.48
2019-03-08T22:24:13.664Z,100785.81
2019-03-08T22:26:43.757Z,100788.84
2019-03-08T22:29:14.191Z,100788.85
2019-03-08T22:31:45.088Z,100781.26
2019-03-08T22:34:16.716Z,100786.59
2019-03-08T22:36:47.608Z,100786.14
2019-03-08T22:39:18.397Z,100781.70
2019-03-08T22:41:50.273Z,100789.54
2019-03-08T22:44:22.225Z,100787.44
2019-03-08T22:46:53.355Z,100784.77
2019-03-08T22:49:24.210Z,100785.27
2019-03-08T22:51:54.923Z,100781.00
2019-03-08T22:54:25.905Z,100788.60
2019-03-08T22:56:58.251Z,100783.73
2019-03-08T22:59:30.313Z,100788.66
2019-03-08T23:02:07.196Z,100787.36
2019-03-08T23:04:38.123Z,100788.67
2019-03-08T23:07:09.848Z,100779.53
2019-03-08T23:09:40.613Z,100784.41
2019-03-08T23:12:11.205Z,100783.11
2019-03-08T23:14:41.631Z,100786.61
2019-03-08T23:17:12.257Z,100791.84
2019-03-08T23:19:43.176Z,100786.13
2019-03-08T23:22:13.633Z,100789.99
2019-03-08T23:24:44.185Z,100790.84
2019-03-08T23:27:16.577Z,100780.39
2019-03-08T23:29:48.659Z,100774.30
2019-03-08T23:32:26.808Z,100779.56
2019-03-08T23:34:57.373Z,100778.24
2019-03-08T23:37:27.888Z,100773.48
2019-03-08T23:39:58.664Z,100769.49
2019-03-08T23:42:29.871Z,100776.14
2019-03-08T23:45:00.372Z,100774.30
2019-03-08T23:47:31.186Z,100772.98
2019-03-08T23:50:01.565Z,100767.69
2019-03-08T23:52:33.755Z,100769.94
2019-03-08T23:55:08.108Z,100772.67
2019-03-08T23:57:38.528Z,100772.64
